createdAt,value
2019-02-21T00:02:15.116Z,10.10
2019-02-21T00:05:22.714Z,9.50
2019-02-21T00:08:30.872Z,9.50
2019-02-21T00:11:38.913Z,9.80
2019-02-21T00:14:46.533Z,9.10
2019-02-21T00:17:53.690Z,10.40
2019-02-21T00:21:00.957Z,9.63
2019-02-21T00:24:08.120Z,9.67
2019-02-21T00:27:15.676Z,9.30
2019-02-21T00:30:23.033Z,9.63
2019-02-21T00:33:30.712Z,8.70
2019-02-21T00:36:38.483Z,9.57
2019-02-21T00:39:45.620Z,8.63
2019-02-21T00:42:53.281Z,8.77
2019-02-21T00:46:00.558Z,8.80
2019-02-21T00:49:07.763Z,8.87
2019-02-21T00:52:14.936Z,8.13
2019-02-21T00:55:23.500Z,7.73
2019-02-21T00:58:30.936Z,8.60
2019-02-21T01:01:38.088Z,8.70
2019-02-21T01:04:45.911Z,8.37
2019-02-21T01:07:53.530Z,8.00
2019-02-21T01:11:00.905Z,8.00
2019-02-21T01:14:08.317Z,9.10
2019-02-21T01:17:15.468Z,7.83
2019-02-21T01:20:22.628Z,8.40
2019-02-21T01:23:30.085Z,8.63
2019-02-21T01:26:37.790Z,8.23
2019-02-21T01:29:44.949Z,8.63
2019-02-21T01:32:52.987Z,7.43
2019-02-21T01:36:00.578Z,8.23
2019-02-21T01:39:08.390Z,8.53
2019-02-21T01:42:16.193Z,8.47
2019-02-21T01:45:23.442Z,8.00
2019-02-21T01:48:30.631Z,8.00
2019-02-21T01:51:37.917Z,8.63
2019-02-21T01:54:46.324Z,8.20
2019-02-21T01:57:53.774Z,7.60
2019-02-21T02:01:08.433Z,7.67
2019-02-21T02:04:10.612Z,7.23
2019-02-21T02:07:18.078Z,8.47
2019-02-21T02:10:25.815Z,7.80
2019-02-21T02:13:33.609Z,6.93
2019-02-21T02:16:41.005Z,8.10
2019-02-21T02:19:48.385Z,8.07
2019-02-21T02:22:55.654Z,8.43
2019-02-21T02:26:03.170Z,7.37
2019-02-21T02:29:10.575Z,6.67
2019-02-21T02:32:17.735Z,7.97
2019-02-21T02:35:25.260Z,8.97
2019-02-21T02:38:32.441Z,7.33
2019-02-21T02:41:40.189Z,7.20
2019-02-21T02:44:47.408Z,6.67
2019-02-21T02:47:54.937Z,7.17
2019-02-21T02:51:02.340Z,7.50
2019-02-21T02:54:09.824Z,6.93
2019-02-21T02:57:17.351Z,7.40
2019-02-21T03:00:24.516Z,7.13
2019-02-21T03:03:31.787Z,7.83
2019-02-21T03:06:39.170Z,6.90
2019-02-21T03:09:46.560Z,7.60
2019-02-21T03:12:53.827Z,7.53
2019-02-21T03:16:01.405Z,7.33
2019-02-21T03:19:08.667Z,7.83
2019-02-21T03:22:16.222Z,7.77
2019-02-21T03:25:23.519Z,8.47
2019-02-21T03:28:31.030Z,8.00
2019-02-21T03:31:53.368Z,7.67
2019-02-21T03:34:47.817Z,7.90
2019-02-21T03:37:55.237Z,7.37
2019-02-21T03:41:02.972Z,7.37
2019-02-21T03:44:10.134Z,8.00
2019-02-21T03:47:17.773Z,6.70
2019-02-21T03:50:25.342Z,7.13
2019-02-21T03:53:33.137Z,6.80
2019-02-21T03:56:40.377Z,6.93
2019-02-21T03:59:47.761Z,7.10
2019-02-21T04:02:55.127Z,7.27
2019-02-21T04:06:02.603Z,7.70
2019-02-21T04:09:09.886Z,7.67
2019-02-21T04:12:17.182Z,6.87
2019-02-21T04:15:24.726Z,6.23
2019-02-21T04:18:32.539Z,6.20
2019-02-21T04:21:39.950Z,5.80
2019-02-21T04:24:47.623Z,5.83
2019-02-21T04:27:55.169Z,5.43
2019-02-21T04:31:02.529Z,6.27
2019-02-21T04:34:10.117Z,5.50
2019-02-21T04:37:17.275Z,6.30
2019-02-21T04:40:24.625Z,6.07
2019-02-21T04:43:32.861Z,6.20
2019-02-21T04:46:42.877Z,6.40
2019-02-21T04:49:50.064Z,6.00
2019-02-21T04:52:57.238Z,6.33
2019-02-21T04:56:04.893Z,5.90
2019-02-21T04:59:12.571Z,5.43
2019-02-21T05:02:28.435Z,6.23
2019-02-21T05:05:29.980Z,5.50
2019-02-21T05:08:37.660Z,6.27
2019-02-21T05:11:45.179Z,6.67
2019-02-21T05:14:52.390Z,6.67
2019-02-21T05:17:59.918Z,6.27
2019-02-21T05:21:07.369Z,6.70
2019-02-21T05:24:14.905Z,6.43
2019-02-21T05:27:28.001Z,6.03
2019-02-21T05:30:36.345Z,6.60
2019-02-21T05:33:57.631Z,7.30
2019-02-21T05:37:30.808Z,7.70
2019-02-21T05:40:54.740Z,7.30
2019-02-21T05:44:21.811Z,6.63
2019-02-21T05:47:47.350Z,6.77
2019-02-21T05:51:17.191Z,6.50
2019-02-21T05:54:35.465Z,5.87
2019-02-21T05:57:52.923Z,7.33
2019-02-21T06:01:07.147Z,7.17
2019-02-21T06:04:32.613Z,7.10
2019-02-21T06:07:50.184Z,7.03
2019-02-21T06:11:09.120Z,6.53
2019-02-21T06:14:35.936Z,6.80
2019-02-21T06:18:11.851Z,5.70
2019-02-21T06:21:41.968Z,6.73
2019-02-21T06:25:04.444Z,6.70
2019-02-21T06:28:37.088Z,7.07
2019-02-21T06:31:44.512Z,6.97
2019-02-21T06:34:52.786Z,6.40
2019-02-21T06:37:59.992Z,6.70
2019-02-21T06:41:07.827Z,6.87
2019-02-21T06:44:15.224Z,7.50
2019-02-21T06:47:22.504Z,6.67
2019-02-21T06:50:30.205Z,7.20
2019-02-21T06:53:37.698Z,6.80
2019-02-21T06:56:45.190Z,6.97
2019-02-21T06:59:52.697Z,7.20
2019-02-21T07:03:00.594Z,7.43
2019-02-21T07:06:08.250Z,7.67
2019-02-21T07:09:15.576Z,7.23
2019-02-21T07:12:23.705Z,7.63
2019-02-21T07:15:31.183Z,9.13
2019-02-21T07:18:40.780Z,8.33
2019-02-21T07:21:48.572Z,8.37
2019-02-21T07:25:00.651Z,8.07
2019-02-21T07:28:11.837Z,8.50
2019-02-21T07:31:28.193Z,7.27
2019-02-21T07:34:26.858Z,6.30
2019-02-21T07:37:35.134Z,7.17
2019-02-21T07:40:42.308Z,6.17
2019-02-21T07:43:49.578Z,6.17
2019-02-21T07:46:57.216Z,7.80
2019-02-21T07:50:05.257Z,6.63
2019-02-21T07:53:12.633Z,6.93
2019-02-21T07:56:19.832Z,6.50
2019-02-21T07:59:27.005Z,7.03
2019-02-21T08:02:34.796Z,9.43
2019-02-21T08:05:42.392Z,7.80
2019-02-21T08:08:49.925Z,7.53
2019-02-21T08:11:57.609Z,7.70
2019-02-21T08:15:06.829Z,7.63
2019-02-21T08:18:14.837Z,7.57
2019-02-21T08:21:22.345Z,8.07
2019-02-21T08:24:29.768Z,8.63
2019-02-21T08:27:37.270Z,7.87
2019-02-21T08:30:44.620Z,8.03
2019-02-21T08:34:12.082Z,7.33
2019-02-21T08:37:19.252Z,6.50
2019-02-21T08:40:26.883Z,7.03
2019-02-21T08:43:34.273Z,6.80
2019-02-21T08:46:41.558Z,8.87
2019-02-21T08:49:49.204Z,8.17
2019-02-21T08:52:56.972Z,8.00
2019-02-21T08:56:04.654Z,7.17
2019-02-21T08:59:11.831Z,8.17
2019-02-21T09:05:28.152Z,8.07
2019-02-21T09:08:37.249Z,8.50
2019-02-21T09:11:44.754Z,8.77
2019-02-21T09:14:52.035Z,7.83
2019-02-21T09:17:59.313Z,8.70
2019-02-21T09:21:07.135Z,8.10
2019-02-21T09:24:26.821Z,9.17
2019-02-21T09:27:23.864Z,8.53
2019-02-21T09:30:31.605Z,8.60
2019-02-21T09:33:40.166Z,7.87
2019-02-21T09:36:47.809Z,7.70
2019-02-21T09:39:55.383Z,7.50
2019-02-21T09:43:03.199Z,7.53
2019-02-21T09:46:11.106Z,8.57
2019-02-21T09:49:18.725Z,8.03
2019-02-21T09:52:26.300Z,7.70
2019-02-21T09:55:34.060Z,8.40
2019-02-21T09:58:42.109Z,7.63
2019-02-21T10:01:49.281Z,7.83
2019-02-21T10:05:04.597Z,8.03
2019-02-21T10:08:05.882Z,7.27
2019-02-21T10:11:13.322Z,7.13
2019-02-21T10:14:21.548Z,7.40
2019-02-21T10:17:29.231Z,7.27
2019-02-21T10:20:36.951Z,8.70
2019-02-21T10:23:44.292Z,8.00
2019-02-21T10:26:51.670Z,7.47
2019-02-21T10:29:59.079Z,8.30
2019-02-21T10:33:06.716Z,7.97
2019-02-21T10:36:14.310Z,7.63
2019-02-21T10:39:22.113Z,8.87
2019-02-21T10:42:29.388Z,8.20
2019-02-21T10:45:47.076Z,8.20
2019-02-21T10:48:45.614Z,8.90
2019-02-21T10:51:52.885Z,8.03
2019-02-21T10:55:00.285Z,8.10
2019-02-21T10:58:08.014Z,8.43
2019-02-21T11:01:15.295Z,8.87
2019-02-21T11:04:22.698Z,8.57
2019-02-21T11:07:29.972Z,8.60
2019-02-21T11:10:37.334Z,9.17
2019-02-21T11:13:44.774Z,9.03
2019-02-21T11:16:51.950Z,8.20
2019-02-21T11:19:59.786Z,7.97
2019-02-21T11:23:07.469Z,8.43
2019-02-21T11:26:15.107Z,8.77
2019-02-21T11:29:22.783Z,8.20
2019-02-21T11:32:29.945Z,9.07
2019-02-21T11:35:37.242Z,8.43
2019-02-21T11:38:44.655Z,7.43
2019-02-21T11:41:52.256Z,8.13
2019-02-21T11:44:59.628Z,8.27
2019-02-21T11:48:09.317Z,9.17
2019-02-21T11:51:16.802Z,7.63
2019-02-21T11:54:27.217Z,8.57
2019-02-21T11:57:34.031Z,8.90
2019-02-21T12:00:41.509Z,8.17
2019-02-21T12:03:48.790Z,8.77
2019-02-21T12:06:56.051Z,10.17
2019-02-21T12:10:04.719Z,8.57
2019-02-21T12:13:11.999Z,9.47
2019-02-21T12:16:19.191Z,9.40
2019-02-21T12:19:26.467Z,8.07
2019-02-21T12:22:34.197Z,8.70
2019-02-21T12:25:41.472Z,9.23
2019-02-21T12:28:48.778Z,8.90
2019-02-21T12:31:56.272Z,7.80
2019-02-21T12:35:03.797Z,8.30
2019-02-21T12:38:11.678Z,8.47
2019-02-21T12:41:19.033Z,7.50
2019-02-21T12:44:26.214Z,8.30
2019-02-21T12:47:33.525Z,8.37
2019-02-21T12:50:44.285Z,8.30
2019-02-21T12:53:50.138Z,8.57
2019-02-21T12:56:57.788Z,8.60
2019-02-21T13:00:09.655Z,9.57
2019-02-21T13:03:16.944Z,8.87
2019-02-21T13:06:24.777Z,11.70
2019-02-21T13:09:32.679Z,9.13
2019-02-21T13:12:40.052Z,8.97
2019-02-21T13:15:47.767Z,9.27
2019-02-21T13:18:54.953Z,9.37
2019-02-21T13:22:02.308Z,9.20
2019-02-21T13:25:11.014Z,8.17
2019-02-21T13:28:18.287Z,8.03
2019-02-21T13:31:26.072Z,9.07
2019-02-21T13:34:33.243Z,8.87
2019-02-21T13:37:41.087Z,9.27
2019-02-21T13:40:49.574Z,8.97
2019-02-21T13:43:56.922Z,8.73
2019-02-21T13:47:04.679Z,7.77
2019-02-21T13:50:14.208Z,8.00
2019-02-21T13:53:21.470Z,8.40
2019-02-21T13:56:28.662Z,7.77
2019-02-21T13:59:36.088Z,8.80
2019-02-21T14:02:43.466Z,8.70
2019-02-21T14:05:50.829Z,8.83
2019-02-21T14:08:58.281Z,9.30
2019-02-21T14:12:05.821Z,8.50
2019-02-21T14:15:19.341Z,8.13
2019-02-21T14:18:26.744Z,7.80
2019-02-21T14:21:33.924Z,7.73
2019-02-21T14:24:41.464Z,7.43
2019-02-21T14:27:48.825Z,9.40
2019-02-21T14:30:56.202Z,8.00
2019-02-21T14:34:03.674Z,8.57
2019-02-21T14:37:10.845Z,8.13
2019-02-21T14:40:18.289Z,8.27
2019-02-21T14:43:26.048Z,7.57
2019-02-21T14:46:33.209Z,7.17
2019-02-21T14:49:40.799Z,7.67
2019-02-21T14:52:48.025Z,7.97
2019-02-21T14:55:55.441Z,7.80
2019-02-21T14:59:02.819Z,7.40
2019-02-21T15:02:10.101Z,7.87
2019-02-21T15:05:18.111Z,7.67
2019-02-21T15:08:25.235Z,6.43
2019-02-21T15:11:32.512Z,6.83
2019-02-21T15:14:39.933Z,6.30
2019-02-21T15:17:50.903Z,6.23
2019-02-21T15:20:58.783Z,5.67
2019-02-21T15:24:06.039Z,5.70
2019-02-21T15:27:13.571Z,5.27
2019-02-21T15:30:22.381Z,4.83
2019-02-21T15:33:29.812Z,5.40
2019-02-21T15:36:38.637Z,5.20
2019-02-21T15:39:46.557Z,5.20
2019-02-21T15:42:54.308Z,4.57
2019-02-21T15:46:02.030Z,4.20
2019-02-21T15:49:09.940Z,5.10
2019-02-21T15:52:22.222Z,4.80
2019-02-21T15:55:28.304Z,4.40
2019-02-21T15:58:35.849Z,4.90
2019-02-21T16:01:47.841Z,5.67
2019-02-21T16:04:56.323Z,5.30
2019-02-21T16:08:04.561Z,4.97
2019-02-21T16:11:16.639Z,4.93
2019-02-21T16:14:24.758Z,5.43
2019-02-21T16:17:32.207Z,4.80
2019-02-21T16:20:39.564Z,4.83
2019-02-21T16:23:54.108Z,5.13
2019-02-21T16:27:04.061Z,5.67
2019-02-21T16:30:12.782Z,6.73
2019-02-21T16:33:20.506Z,5.80
2019-02-21T16:36:28.866Z,5.67
2019-02-21T16:39:37.474Z,5.93
2019-02-21T16:42:45.374Z,4.73
2019-02-21T16:45:54.213Z,5.23
2019-02-21T16:49:02.836Z,4.93
2019-02-21T16:52:10.913Z,4.80
2019-02-21T16:55:18.536Z,5.00
2019-02-21T16:58:26.284Z,5.37
2019-02-21T17:01:33.790Z,5.03
2019-02-21T17:04:41.901Z,4.73
2019-02-21T17:07:49.317Z,7.33
2019-02-21T17:10:56.724Z,9.67
2019-02-21T17:14:04.379Z,8.70
2019-02-21T17:17:11.696Z,8.47
2019-02-21T17:20:19.705Z,7.93
2019-02-21T17:23:27.418Z,7.30
2019-02-21T17:26:35.048Z,6.67
2019-02-21T17:29:42.836Z,6.87
2019-02-21T17:32:50.766Z,6.07
2019-02-21T17:35:59.466Z,6.60
2019-02-21T17:39:08.349Z,6.10
2019-02-21T17:42:16.433Z,6.80
2019-02-21T17:45:23.996Z,7.00
2019-02-21T17:48:32.096Z,6.83
2019-02-21T17:51:39.723Z,7.80
2019-02-21T17:54:47.719Z,10.40
2019-02-21T17:57:56.102Z,9.87
2019-02-21T18:01:04.677Z,9.10
2019-02-21T18:04:15.432Z,9.17
2019-02-21T18:07:23.393Z,11.50
2019-02-21T18:10:30.993Z,9.80
2019-02-21T18:13:38.898Z,14.57
2019-02-21T18:16:47.048Z,12.63
2019-02-21T18:19:54.788Z,13.17
2019-02-21T18:23:09.733Z,14.23
2019-02-21T18:26:18.455Z,11.57
2019-02-21T18:29:26.049Z,12.07
2019-02-21T18:32:33.842Z,9.87
2019-02-21T18:35:41.815Z,8.20
2019-02-21T18:38:49.550Z,6.97
2019-02-21T18:41:57.142Z,6.13
2019-02-21T18:45:05.622Z,7.80
2019-02-21T18:48:13.714Z,7.00
2019-02-21T18:51:22.075Z,6.43
2019-02-21T18:54:29.922Z,7.47
2019-02-21T18:57:37.505Z,7.37
2019-02-21T19:00:45.154Z,7.73
2019-02-21T19:03:53.070Z,8.03
2019-02-21T19:07:01.380Z,9.20
2019-02-21T19:10:11.425Z,8.23
2019-02-21T19:13:19.606Z,9.13
2019-02-21T19:16:27.497Z,9.50
2019-02-21T19:19:35.587Z,8.67
2019-02-21T19:22:43.839Z,6.50
2019-02-21T19:25:51.897Z,6.73
2019-02-21T19:28:59.558Z,6.43
2019-02-21T19:32:07.501Z,6.17
2019-02-21T19:35:16.152Z,6.37
2019-02-21T19:38:24.064Z,7.93
2019-02-21T19:41:32.189Z,8.40
2019-02-21T19:44:39.734Z,10.50
2019-02-21T19:47:47.991Z,10.10
2019-02-21T19:50:55.967Z,9.13
2019-02-21T19:54:03.857Z,9.43
2019-02-21T19:57:11.682Z,9.97
2019-02-21T20:00:21.642Z,9.93
2019-02-21T20:03:29.504Z,8.40
2019-02-21T20:06:36.937Z,7.73
2019-02-21T20:09:44.549Z,7.00
2019-02-21T20:12:52.126Z,6.77
2019-02-21T20:15:59.908Z,6.20
2019-02-21T20:19:07.396Z,6.43
2019-02-21T20:22:15.083Z,6.63
2019-02-21T20:25:23.225Z,5.43
2019-02-21T20:28:30.823Z,8.67
2019-02-21T20:31:39.035Z,7.77
2019-02-21T20:34:47.162Z,8.53
2019-02-21T20:37:54.862Z,6.30
2019-02-21T20:41:02.691Z,7.03
2019-02-21T20:44:10.264Z,5.53
2019-02-21T20:47:17.971Z,4.77
2019-02-21T20:50:25.861Z,5.23
2019-02-21T20:53:33.543Z,4.63
2019-02-21T20:56:41.702Z,4.67
2019-02-21T20:59:49.441Z,4.33
2019-02-21T21:02:56.988Z,4.07
2019-02-21T21:06:04.788Z,4.87
2019-02-21T21:09:12.222Z,4.17
2019-02-21T21:12:19.898Z,4.73
2019-02-21T21:15:27.668Z,5.10
2019-02-21T21:18:35.633Z,3.87
2019-02-21T21:21:43.111Z,4.10
2019-02-21T21:24:51.197Z,4.27
2019-02-21T21:27:59.345Z,3.97
2019-02-21T21:31:07.207Z,3.97
2019-02-21T21:34:14.599Z,4.33
2019-02-21T21:37:22.373Z,4.47
2019-02-21T21:40:29.939Z,4.13
2019-02-21T21:43:38.225Z,4.17
2019-02-21T21:46:46.152Z,4.77
2019-02-21T21:49:53.848Z,4.70
2019-02-21T21:53:01.584Z,5.17
2019-02-21T21:56:09.491Z,5.17
2019-02-21T21:59:16.896Z,4.90
2019-02-21T22:02:24.352Z,5.70
2019-02-21T22:05:31.869Z,5.33
2019-02-21T22:08:39.503Z,5.93
2019-02-21T22:11:47.296Z,5.90
2019-02-21T22:14:54.769Z,6.07
2019-02-21T22:18:03.037Z,6.00
2019-02-21T22:21:11.032Z,6.07
2019-02-21T22:24:18.977Z,6.27
2019-02-21T22:27:26.643Z,5.93
2019-02-21T22:30:34.095Z,6.17
2019-02-21T22:33:41.761Z,6.57
2019-02-21T22:36:49.420Z,6.97
2019-02-21T22:39:56.851Z,7.63
2019-02-21T22:43:04.748Z,7.47
2019-02-21T22:46:12.435Z,7.57
2019-02-21T22:49:19.869Z,7.77
2019-02-21T22:52:27.215Z,7.00
2019-02-21T22:55:35.224Z,7.57
2019-02-21T22:58:45.332Z,6.97
2019-02-21T23:01:53.963Z,6.37
2019-02-21T23:05:50.342Z,6.83
2019-02-21T23:08:58.195Z,8.63
2019-02-21T23:12:06.468Z,8.13
2019-02-21T23:15:14.273Z,8.13
2019-02-21T23:18:22.454Z,8.30
2019-02-21T23:21:30.067Z,7.40
2019-02-21T23:24:37.538Z,7.40
2019-02-21T23:27:45.276Z,6.97
2019-02-21T23:30:52.940Z,7.63
2019-02-21T23:34:00.998Z,7.33
2019-02-21T23:37:08.607Z,6.77
2019-02-21T23:40:16.288Z,6.57
2019-02-21T23:43:23.668Z,6.10
2019-02-21T23:46:31.072Z,6.70
2019-02-21T23:49:38.778Z,7.47
2019-02-21T23:52:46.177Z,6.13
2019-02-21T23:55:53.772Z,6.70
2019-02-21T23:59:01.188Z,5.97
